createdAt,value
2023-01-07T00:02:53.531Z,4.59
2023-01-07T00:06:12.670Z,4.62
2023-01-07T00:09:18.950Z,4.51
2023-01-07T00:12:21.742Z,4.46
2023-01-07T00:15:26.387Z,4.47
2023-01-07T00:18:29.484Z,4.40
2023-01-07T00:21:32.951Z,4.41
2023-01-07T00:24:35.982Z,4.54
2023-01-07T00:27:38.788Z,4.58
2023-01-07T00:30:41.840Z,4.55
2023-01-07T00:33:54.545Z,4.55
2023-01-07T00:37:17.345Z,4.61
2023-01-07T00:40:21.388Z,4.73
2023-01-07T00:43:24.396Z,4.68
2023-01-07T00:46:27.470Z,4.64
2023-01-07T00:49:36.604Z,4.84
2023-01-07T00:52:39.551Z,4.83
2023-01-07T00:55:45.566Z,4.89
2023-01-07T00:58:48.586Z,5.00
2023-01-07T01:01:51.471Z,5.05
2023-01-07T01:04:54.494Z,5.13
2023-01-07T01:07:58.257Z,5.05
2023-01-07T01:11:05.946Z,5.14
2023-01-07T01:14:11.786Z,5.19
2023-01-07T01:17:16.951Z,5.12
2023-01-07T01:20:20.119Z,4.91
2023-01-07T01:23:27.919Z,4.93
2023-01-07T01:26:30.740Z,4.98
2023-01-07T01:29:33.637Z,4.90
2023-01-07T01:32:36.529Z,5.05
2023-01-07T01:35:42.633Z,4.98
2023-01-07T01:38:45.517Z,4.91
2023-01-07T01:41:48.451Z,4.86
2023-01-07T01:44:56.219Z,4.92
2023-01-07T01:48:08.153Z,4.87
2023-01-07T01:51:11.506Z,4.81
2023-01-07T01:54:16.508Z,4.82
2023-01-07T01:57:20.076Z,4.91
2023-01-07T02:00:23.113Z,4.97
2023-01-07T02:03:30.037Z,4.93
2023-01-07T02:06:39.930Z,4.93
2023-01-07T02:09:44.323Z,4.92
2023-01-07T02:12:50.167Z,4.86
2023-01-07T02:16:27.019Z,4.86
2023-01-07T02:19:51.685Z,4.87
2023-01-07T02:23:16.170Z,4.89
2023-01-07T02:26:50.286Z,4.86
2023-01-07T02:30:20.170Z,4.85
2023-01-07T02:33:44.935Z,4.91
2023-01-07T02:36:57.435Z,4.98
2023-01-07T02:40:42.371Z,5.09
2023-01-07T02:43:54.393Z,5.17
2023-01-07T02:47:18.794Z,5.13
2023-01-07T02:50:21.718Z,5.10
2023-01-07T02:53:24.813Z,5.06
2023-01-07T02:56:49.869Z,5.09
2023-01-07T03:00:04.425Z,5.09
2023-01-07T03:03:26.049Z,5.10
2023-01-07T03:06:59.265Z,5.09
2023-01-07T03:10:14.241Z,5.09
2023-01-07T03:13:19.831Z,5.06
2023-01-07T03:16:48.160Z,5.02
2023-01-07T03:19:56.773Z,4.96
2023-01-07T03:22:59.747Z,4.96
2023-01-07T03:26:07.465Z,4.95
2023-01-07T03:29:14.947Z,4.89
2023-01-07T03:32:22.506Z,4.84
2023-01-07T03:35:25.622Z,4.77
2023-01-07T03:38:28.723Z,4.66
2023-01-07T03:42:00.897Z,4.69
2023-01-07T03:45:04.010Z,4.77
2023-01-07T03:48:07.309Z,4.56
2023-01-07T03:51:10.179Z,4.52
2023-01-07T03:54:13.053Z,4.39
2023-01-07T03:57:15.818Z,4.29
2023-01-07T04:00:19.033Z,4.14
2023-01-07T04:03:21.826Z,3.94
2023-01-07T04:06:27.704Z,3.80
2023-01-07T04:09:30.552Z,3.66
2023-01-07T04:12:33.743Z,3.53
2023-01-07T04:15:37.844Z,3.38
2023-01-07T04:18:41.095Z,3.10
2023-01-07T04:21:44.667Z,2.94
2023-01-07T04:24:47.575Z,2.84
2023-01-07T04:27:53.694Z,2.74
2023-01-07T04:30:59.246Z,2.60
2023-01-07T04:34:02.064Z,2.52
2023-01-07T04:37:04.891Z,2.47
2023-01-07T04:40:08.571Z,2.31
2023-01-07T04:43:11.372Z,2.29
2023-01-07T04:46:14.170Z,2.22
2023-01-07T04:49:20.537Z,2.09
2023-01-07T04:52:23.601Z,1.98
2023-01-07T04:55:29.383Z,1.88
2023-01-07T04:58:32.683Z,1.87
2023-01-07T05:01:35.696Z,1.80
2023-01-07T05:04:39.627Z,1.75
2023-01-07T05:07:45.468Z,2.04
2023-01-07T05:10:52.652Z,2.37
2023-01-07T05:13:56.615Z,2.86
2023-01-07T05:16:59.566Z,2.88
2023-01-07T05:20:08.483Z,2.92
2023-01-07T05:23:18.839Z,2.79
2023-01-07T05:26:21.797Z,2.64
2023-01-07T05:29:24.837Z,2.62
2023-01-07T05:32:27.784Z,2.24
2023-01-07T05:35:30.661Z,2.15
2023-01-07T05:38:33.553Z,2.02
2023-01-07T05:41:39.756Z,1.86
2023-01-07T05:44:43.590Z,1.84
2023-01-07T05:47:49.705Z,1.76
2023-01-07T05:50:52.590Z,1.68
2023-01-07T05:54:00.721Z,1.54
2023-01-07T05:57:03.804Z,1.53
2023-01-07T06:00:10.619Z,1.55
2023-01-07T06:03:15.219Z,1.79
2023-01-07T06:06:21.467Z,2.14
2023-01-07T06:09:24.350Z,2.35
2023-01-07T06:12:31.239Z,2.46
2023-01-07T06:15:34.186Z,2.47
2023-01-07T06:18:37.481Z,2.56
2023-01-07T06:21:42.895Z,2.50
2023-01-07T06:24:45.648Z,2.32
2023-01-07T06:27:48.554Z,2.26
2023-01-07T06:30:51.516Z,1.90
2023-01-07T06:33:55.437Z,2.01
2023-01-07T06:36:58.233Z,1.83
2023-01-07T06:40:02.475Z,1.88
2023-01-07T06:43:08.332Z,1.91
2023-01-07T06:46:11.328Z,1.81
2023-01-07T06:49:14.164Z,2.04
2023-01-07T06:52:17.646Z,2.06
2023-01-07T06:55:26.380Z,2.01
2023-01-07T06:58:29.532Z,2.07
2023-01-07T07:01:37.885Z,2.30
2023-01-07T07:04:41.038Z,2.45
2023-01-07T07:07:44.048Z,2.32
2023-01-07T07:10:49.910Z,2.44
2023-01-07T07:13:52.783Z,2.55
2023-01-07T07:16:55.631Z,2.66
2023-01-07T07:19:58.713Z,2.59
2023-01-07T07:23:02.236Z,2.71
2023-01-07T07:26:08.166Z,2.83
2023-01-07T07:29:11.415Z,3.17
2023-01-07T07:32:14.268Z,3.29
2023-01-07T07:35:17.468Z,3.37
2023-01-07T07:38:20.437Z,3.48
2023-01-07T07:41:23.920Z,3.68
2023-01-07T07:44:26.759Z,3.68
2023-01-07T07:47:29.642Z,3.78
2023-01-07T07:50:32.498Z,3.88
2023-01-07T07:53:38.317Z,3.95
2023-01-07T07:56:44.108Z,3.97
2023-01-07T07:59:46.958Z,4.03
2023-01-07T08:02:51.676Z,4.11
2023-01-07T08:05:54.516Z,4.19
2023-01-07T08:08:57.511Z,4.23
2023-01-07T08:12:01.044Z,4.29
2023-01-07T08:15:07.018Z,4.32
2023-01-07T08:18:11.718Z,4.35
2023-01-07T08:21:15.603Z,4.43
2023-01-07T08:24:18.451Z,4.53
2023-01-07T08:27:24.514Z,4.63
2023-01-07T08:30:35.575Z,4.72
2023-01-07T08:33:41.861Z,4.83
2023-01-07T08:36:44.781Z,4.93
2023-01-07T08:39:48.821Z,5.03
2023-01-07T08:42:51.655Z,5.13
2023-01-07T08:45:54.963Z,5.19
2023-01-07T08:48:57.937Z,5.31
2023-01-07T08:52:00.966Z,5.39
2023-01-07T08:55:07.285Z,5.44
2023-01-07T08:58:10.343Z,5.52
2023-01-07T09:01:16.466Z,5.73
2023-01-07T09:04:19.481Z,5.82
2023-01-07T09:07:22.311Z,5.95
2023-01-07T09:10:28.577Z,6.12
2023-01-07T09:13:31.319Z,6.22
2023-01-07T09:16:34.620Z,6.51
2023-01-07T09:19:37.624Z,6.69
2023-01-07T09:22:40.601Z,6.87
2023-01-07T09:25:43.631Z,7.01
2023-01-07T09:28:49.581Z,7.00
2023-01-07T09:31:52.673Z,7.21
2023-01-07T09:34:55.917Z,7.51
2023-01-07T09:37:58.846Z,7.79
2023-01-07T09:41:01.887Z,7.72
2023-01-07T09:44:10.546Z,7.95
2023-01-07T09:47:15.923Z,8.21
2023-01-07T09:50:25.360Z,8.43
2023-01-07T09:53:41.772Z,8.99
2023-01-07T09:56:47.957Z,9.20
2023-01-07T09:59:50.941Z,9.45
2023-01-07T10:03:23.227Z,9.72
2023-01-07T10:06:43.092Z,10.07
2023-01-07T10:10:05.324Z,10.39
2023-01-07T10:13:35.597Z,10.60
2023-01-07T10:17:22.390Z,10.61
2023-01-07T10:20:44.293Z,10.75
2023-01-07T10:23:52.129Z,11.15
2023-01-07T10:27:16.495Z,11.16
2023-01-07T10:30:23.593Z,11.04
2023-01-07T10:33:31.417Z,11.34
2023-01-07T10:36:38.712Z,11.44
2023-01-07T10:39:47.930Z,11.44
2023-01-07T10:42:56.673Z,11.52
2023-01-07T10:46:29.600Z,12.17
2023-01-07T10:49:48.778Z,12.58
2023-01-07T10:53:19.230Z,13.03
2023-01-07T10:56:28.508Z,13.28
2023-01-07T10:59:31.697Z,13.28
2023-01-07T11:02:35.001Z,13.35
2023-01-07T11:05:53.460Z,13.80
2023-01-07T11:08:59.432Z,13.31
2023-01-07T11:12:21.669Z,13.16
2023-01-07T11:15:36.632Z,13.52
2023-01-07T11:19:05.181Z,14.13
2023-01-07T11:22:28.066Z,13.93
2023-01-07T11:25:31.286Z,13.95
2023-01-07T11:28:34.641Z,14.16
2023-01-07T11:31:52.990Z,13.98
2023-01-07T11:35:07.656Z,14.06
2023-01-07T11:38:29.071Z,14.34
2023-01-07T11:41:36.073Z,14.64
2023-01-07T11:44:39.690Z,14.98
2023-01-07T11:48:07.975Z,15.52
2023-01-07T11:51:11.326Z,15.10
2023-01-07T11:54:25.883Z,15.49
2023-01-07T11:57:30.316Z,15.62
2023-01-07T12:00:33.681Z,15.79
2023-01-07T12:03:40.442Z,15.22
2023-01-07T12:06:45.301Z,16.30
2023-01-07T12:09:48.516Z,16.00
2023-01-07T12:12:54.130Z,16.23
2023-01-07T12:16:04.530Z,16.51
2023-01-07T12:19:38.473Z,16.20
2023-01-07T12:22:47.547Z,16.27
2023-01-07T12:26:12.437Z,16.14
2023-01-07T12:29:40.069Z,16.55
2023-01-07T12:33:04.957Z,17.33
2023-01-07T12:36:18.257Z,16.38
2023-01-07T12:39:23.279Z,17.26
2023-01-07T12:42:30.404Z,17.02
2023-01-07T12:46:06.331Z,17.23
2023-01-07T12:49:21.338Z,16.32
2023-01-07T12:53:01.039Z,16.53
2023-01-07T12:56:13.440Z,17.68
2023-01-07T12:59:46.120Z,18.11
2023-01-07T13:02:58.855Z,17.91
2023-01-07T13:06:17.644Z,18.25
2023-01-07T13:09:46.251Z,18.80
2023-01-07T13:12:52.678Z,18.67
2023-01-07T13:15:57.078Z,18.25
2023-01-07T13:19:00.539Z,18.18
2023-01-07T13:22:03.811Z,18.02
2023-01-07T13:25:12.878Z,18.25
2023-01-07T13:28:51.785Z,16.79
2023-01-07T13:31:59.387Z,16.10
2023-01-07T13:35:23.400Z,15.81
2023-01-07T13:38:40.384Z,15.19
2023-01-07T13:42:06.236Z,15.11
2023-01-07T13:45:14.814Z,14.67
2023-01-07T13:48:23.649Z,14.15
2023-01-07T13:51:37.158Z,13.69
2023-01-07T13:54:53.252Z,13.17
2023-01-07T13:57:56.337Z,12.82
2023-01-07T14:01:09.706Z,12.79
2023-01-07T14:04:36.097Z,12.81
2023-01-07T14:07:48.422Z,12.60
2023-01-07T14:10:57.324Z,12.29
2023-01-07T14:14:08.138Z,11.95
2023-01-07T14:17:21.086Z,11.96
2023-01-07T14:20:49.350Z,11.97
2023-01-07T14:24:18.696Z,12.06
2023-01-07T14:28:13.773Z,11.84
2023-01-07T14:31:46.755Z,11.38
2023-01-07T14:35:28.091Z,11.18
2023-01-07T14:38:35.937Z,10.76
2023-01-07T14:42:21.364Z,10.45
2023-01-07T14:45:39.762Z,10.18
2023-01-07T14:48:42.972Z,10.04
2023-01-07T14:52:57.464Z,9.83
2023-01-07T14:56:45.476Z,9.45
2023-01-07T15:00:15.024Z,9.27
2023-01-07T15:04:17.155Z,9.09
2023-01-07T15:07:26.254Z,8.71
2023-01-07T15:10:49.899Z,8.41
2023-01-07T15:14:24.498Z,8.22
2023-01-07T15:17:27.729Z,8.05
2023-01-07T15:20:52.966Z,7.78
2023-01-07T15:24:31.757Z,7.58
2023-01-07T15:28:18.349Z,7.37
2023-01-07T15:31:28.121Z,7.26
2023-01-07T15:34:32.630Z,7.06
2023-01-07T15:37:35.702Z,6.89
2023-01-07T15:40:38.835Z,6.80
2023-01-07T15:43:45.042Z,6.70
2023-01-07T15:46:48.216Z,6.36
2023-01-07T15:49:57.242Z,6.27
2023-01-07T15:53:12.657Z,6.16
2023-01-07T15:56:18.296Z,6.08
2023-01-07T15:59:33.027Z,6.00
2023-01-07T16:02:43.398Z,5.83
2023-01-07T16:05:46.500Z,5.81
2023-01-07T16:08:49.445Z,5.65
2023-01-07T16:11:55.269Z,5.50
2023-01-07T16:14:58.327Z,5.37
2023-01-07T16:18:03.903Z,5.15
2023-01-07T16:21:10.309Z,5.06
2023-01-07T16:24:17.834Z,5.01
2023-01-07T16:27:27.798Z,4.90
2023-01-07T16:30:31.598Z,4.81
2023-01-07T16:33:35.431Z,4.74
2023-01-07T16:36:48.947Z,4.66
2023-01-07T16:40:25.670Z,4.56
2023-01-07T16:44:08.490Z,4.46
2023-01-07T16:47:24.541Z,4.45
2023-01-07T16:50:39.824Z,4.17
2023-01-07T16:53:42.832Z,4.15
2023-01-07T16:56:51.898Z,4.15
2023-01-07T16:59:57.351Z,4.17
2023-01-07T17:03:01.030Z,4.12
2023-01-07T17:06:06.797Z,4.01
2023-01-07T17:09:22.473Z,3.88
2023-01-07T17:12:41.334Z,4.03
2023-01-07T17:15:44.510Z,4.17
2023-01-07T17:18:47.489Z,4.17
2023-01-07T17:21:50.781Z,4.01
2023-01-07T17:24:53.963Z,4.08
2023-01-07T17:28:08.180Z,4.11
2023-01-07T17:31:11.160Z,4.17
2023-01-07T17:34:14.525Z,4.08
2023-01-07T17:37:33.203Z,4.12
2023-01-07T17:40:36.070Z,4.16
2023-01-07T17:43:38.842Z,4.06
2023-01-07T17:46:42.265Z,4.07
2023-01-07T17:49:45.083Z,4.01
2023-01-07T17:52:49.970Z,3.99
2023-01-07T17:55:52.955Z,3.84
2023-01-07T17:58:56.363Z,3.84
2023-01-07T18:02:02.243Z,3.82
2023-01-07T18:05:05.573Z,3.79
2023-01-07T18:08:08.593Z,3.80
2023-01-07T18:11:34.723Z,3.94
2023-01-07T18:14:37.665Z,3.94
2023-01-07T18:17:40.421Z,3.92
2023-01-07T18:20:43.167Z,3.95
2023-01-07T18:23:46.235Z,3.93
2023-01-07T18:26:49.469Z,4.09
2023-01-07T18:29:52.315Z,4.28
2023-01-07T18:32:55.216Z,4.48
2023-01-07T18:35:57.972Z,4.38
2023-01-07T18:39:00.839Z,4.37
2023-01-07T18:42:09.372Z,4.47
2023-01-07T18:45:12.991Z,4.52
2023-01-07T18:48:18.186Z,4.60
2023-01-07T18:51:20.933Z,4.68
2023-01-07T18:54:23.697Z,4.74
2023-01-07T18:57:26.702Z,4.78
2023-01-07T19:00:30.681Z,4.83
2023-01-07T19:03:33.616Z,4.94
2023-01-07T19:06:36.391Z,5.02
2023-01-07T19:09:39.232Z,5.18
2023-01-07T19:12:42.515Z,5.22
2023-01-07T19:15:45.323Z,5.24
2023-01-07T19:18:48.773Z,5.26
2023-01-07T19:21:51.645Z,5.34
2023-01-07T19:24:56.937Z,5.41
2023-01-07T19:28:00.138Z,5.44
2023-01-07T19:31:07.596Z,5.50
2023-01-07T19:34:10.415Z,5.58
2023-01-07T19:37:13.257Z,5.73
2023-01-07T19:40:16.573Z,5.97
2023-01-07T19:43:19.350Z,6.50
2023-01-07T19:46:22.095Z,6.63
2023-01-07T19:49:24.985Z,6.71
2023-01-07T19:52:28.279Z,6.90
2023-01-07T19:55:31.182Z,6.84
2023-01-07T19:58:34.700Z,6.83
2023-01-07T20:01:39.130Z,6.79
2023-01-07T20:04:43.271Z,6.72
2023-01-07T20:07:49.340Z,6.60
2023-01-07T20:11:01.027Z,6.47
2023-01-07T20:14:05.324Z,6.43
2023-01-07T20:17:08.171Z,6.30
2023-01-07T20:20:11.133Z,6.24
2023-01-07T20:23:13.899Z,6.13
2023-01-07T20:26:21.230Z,6.00
2023-01-07T20:29:24.239Z,5.89
2023-01-07T20:32:27.034Z,5.86
2023-01-07T20:35:29.853Z,5.78
2023-01-07T20:38:32.913Z,5.70
2023-01-07T20:41:35.909Z,5.59
2023-01-07T20:44:40.241Z,5.50
2023-01-07T20:47:43.082Z,5.39
2023-01-07T20:50:48.275Z,5.31
2023-01-07T20:53:51.755Z,5.16
2023-01-07T20:56:54.607Z,5.06
2023-01-07T21:00:02.527Z,4.97
2023-01-07T21:03:08.505Z,4.85
2023-01-07T21:06:12.954Z,4.84
2023-01-07T21:09:15.861Z,4.90
2023-01-07T21:12:18.739Z,4.98
2023-01-07T21:15:21.571Z,5.05
2023-01-07T21:18:24.539Z,5.13
2023-01-07T21:21:30.130Z,5.16
2023-01-07T21:24:33.011Z,5.11
2023-01-07T21:27:35.899Z,5.11
2023-01-07T21:30:38.662Z,5.09
2023-01-07T21:33:41.559Z,5.04
2023-01-07T21:36:44.389Z,5.07
2023-01-07T21:39:49.011Z,4.95
2023-01-07T21:42:51.747Z,4.93
2023-01-07T21:45:54.581Z,5.00
2023-01-07T21:48:59.641Z,4.92
2023-01-07T21:52:02.513Z,5.06
2023-01-07T21:55:05.596Z,5.06
2023-01-07T21:58:11.230Z,5.01
2023-01-07T22:01:15.172Z,5.05
2023-01-07T22:04:18.193Z,5.08
2023-01-07T22:07:21.033Z,5.11
2023-01-07T22:10:24.567Z,5.13
2023-01-07T22:13:28.625Z,5.11
2023-01-07T22:16:32.329Z,5.07
2023-01-07T22:19:35.171Z,5.03
2023-01-07T22:22:38.075Z,5.01
2023-01-07T22:25:41.112Z,4.96
2023-01-07T22:28:46.454Z,4.94
2023-01-07T22:31:51.270Z,5.00
2023-01-07T22:34:56.952Z,5.01
2023-01-07T22:38:02.790Z,4.99
2023-01-07T22:41:08.496Z,4.99
2023-01-07T22:44:17.521Z,5.01
2023-01-07T22:47:25.560Z,4.97
2023-01-07T22:50:30.259Z,5.01
2023-01-07T22:53:33.514Z,5.04
2023-01-07T22:56:36.419Z,5.05
2023-01-07T22:59:39.327Z,5.05
2023-01-07T23:02:42.941Z,5.03
2023-01-07T23:05:46.026Z,5.00
2023-01-07T23:08:48.966Z,4.96
2023-01-07T23:11:56.108Z,4.92
2023-01-07T23:15:00.089Z,4.91
2023-01-07T23:18:05.658Z,4.81
2023-01-07T23:21:08.908Z,4.82
2023-01-07T23:24:13.189Z,4.76
2023-01-07T23:27:15.985Z,4.72
2023-01-07T23:30:18.879Z,4.70
2023-01-07T23:33:24.729Z,4.69
2023-01-07T23:36:28.077Z,4.69
2023-01-07T23:39:31.133Z,4.65
2023-01-07T23:42:34.223Z,4.56
2023-01-07T23:45:37.005Z,4.51
2023-01-07T23:48:40.065Z,4.47
2023-01-07T23:51:43.302Z,4.36
2023-01-07T23:54:46.514Z,4.31
2023-01-07T23:57:49.329Z,4.29
